createdAt,value
2022-08-01T00:03:53.601Z,20.15
2022-08-01T00:08:57.977Z,20.00
2022-08-01T00:14:00.733Z,19.94
2022-08-01T00:19:03.687Z,20.01
2022-08-01T00:24:08.515Z,19.78
2022-08-01T00:30:12.761Z,19.91
2022-08-01T00:34:41.112Z,19.89
2022-08-01T00:39:45.631Z,19.97
2022-08-01T00:44:48.659Z,19.96
2022-08-01T00:49:51.614Z,19.99
2022-08-01T00:54:55.881Z,20.04
2022-08-01T00:59:59.552Z,20.03
2022-08-01T01:05:03.034Z,20.08
2022-08-01T01:10:16.362Z,20.05
2022-08-01T01:15:24.005Z,20.05
2022-08-01T01:20:30.528Z,20.03
2022-08-01T01:25:57.124Z,20.06
2022-08-01T01:31:02.558Z,19.94
2022-08-01T01:36:11.837Z,19.90
2022-08-01T01:41:16.656Z,19.83
2022-08-01T01:46:24.225Z,19.83
2022-08-01T01:51:29.694Z,19.95
2022-08-01T01:56:33.118Z,19.93
2022-08-01T02:01:58.841Z,19.79
2022-08-01T02:07:01.229Z,19.82
2022-08-01T02:12:08.813Z,19.79
2022-08-01T02:17:14.612Z,19.71
2022-08-01T02:22:22.398Z,19.63
2022-08-01T02:27:27.393Z,19.57
2022-08-01T02:32:55.143Z,19.58
2022-08-01T02:38:00.016Z,19.49
2022-08-01T02:43:04.793Z,19.58
2022-08-01T02:48:16.176Z,19.58
2022-08-01T02:53:21.391Z,19.54
2022-08-01T02:58:29.335Z,19.59
2022-08-01T03:03:34.850Z,19.60
2022-08-01T03:08:38.482Z,19.60
2022-08-01T03:13:42.659Z,19.64
2022-08-01T03:18:47.572Z,19.62
2022-08-01T03:23:55.313Z,19.63
2022-08-01T03:29:01.506Z,19.62
2022-08-01T03:34:06.217Z,19.60
2022-08-01T03:39:11.360Z,19.61
2022-08-01T03:44:16.671Z,19.61
2022-08-01T03:49:24.493Z,19.62
2022-08-01T03:54:31.005Z,19.53
2022-08-01T03:59:34.350Z,19.36
2022-08-01T04:04:38.684Z,19.39
2022-08-01T04:09:41.532Z,19.36
2022-08-01T04:14:46.454Z,19.15
2022-08-01T04:19:50.587Z,19.41
2022-08-01T04:24:57.100Z,19.40
2022-08-01T04:30:01.178Z,19.36
2022-08-01T04:35:23.449Z,19.48
2022-08-01T04:40:32.104Z,19.48
2022-08-01T04:45:35.221Z,19.31
2022-08-01T04:50:39.457Z,19.24
2022-08-01T04:55:42.490Z,19.31
2022-08-01T05:00:45.362Z,19.14
2022-08-01T05:05:49.728Z,19.09
2022-08-01T05:10:53.733Z,19.09
2022-08-01T05:16:08.212Z,18.86
2022-08-01T05:21:12.649Z,18.97
2022-08-01T05:26:15.701Z,19.02
2022-08-01T05:31:18.733Z,19.20
2022-08-01T05:36:22.929Z,19.26
2022-08-01T05:41:25.924Z,19.45
2022-08-01T05:46:28.828Z,19.38
2022-08-01T05:51:33.227Z,19.35
2022-08-01T05:56:36.073Z,19.32
2022-08-01T06:01:39.155Z,19.37
2022-08-01T06:06:43.567Z,19.58
2022-08-01T06:11:46.473Z,19.64
2022-08-01T06:16:49.500Z,19.77
2022-08-01T06:21:55.015Z,19.98
2022-08-01T06:26:57.843Z,20.02
2022-08-01T06:32:00.753Z,20.20
2022-08-01T06:37:06.867Z,19.88
2022-08-01T06:42:10.510Z,20.17
2022-08-01T06:47:13.422Z,20.30
2022-08-01T06:52:17.958Z,20.28
2022-08-01T06:57:20.778Z,19.87
2022-08-01T07:02:23.700Z,20.52
2022-08-01T07:07:27.905Z,20.47
2022-08-01T07:12:30.942Z,20.33
2022-08-01T07:17:34.032Z,20.64
2022-08-01T07:22:38.401Z,20.77
2022-08-01T07:27:41.308Z,21.04
2022-08-01T07:32:44.138Z,20.99
2022-08-01T07:37:49.464Z,20.97
2022-08-01T07:42:52.516Z,21.13
2022-08-01T07:47:56.548Z,21.06
2022-08-01T07:53:00.790Z,21.91
2022-08-01T07:58:03.616Z,22.52
2022-08-01T08:03:06.464Z,22.97
2022-08-01T08:08:11.241Z,23.30
2022-08-01T08:13:14.174Z,23.32
2022-08-01T08:18:16.977Z,23.41
2022-08-01T08:23:42.519Z,23.39
2022-08-01T08:28:46.147Z,23.22
2022-08-01T08:33:48.912Z,23.21
2022-08-01T08:38:53.329Z,23.88
2022-08-01T08:44:04.797Z,23.78
2022-08-01T08:49:16.725Z,23.41
2022-08-01T08:54:27.725Z,23.55
2022-08-01T08:59:35.077Z,22.95
2022-08-01T09:04:41.237Z,23.50
2022-08-01T09:09:45.614Z,23.96
2022-08-01T09:14:54.374Z,23.83
2022-08-01T09:19:59.144Z,24.17
2022-08-01T09:25:07.947Z,24.42
2022-08-01T09:30:13.016Z,24.53
2022-08-01T09:35:30.002Z,24.04
2022-08-01T09:40:47.964Z,24.14
2022-08-01T09:45:55.267Z,24.38
2022-08-01T09:51:09.386Z,24.52
2022-08-01T09:56:15.191Z,24.48
2022-08-01T10:01:21.407Z,24.60
2022-08-01T10:06:27.198Z,24.60
2022-08-01T10:11:36.499Z,24.32
2022-08-01T10:16:41.684Z,24.53
2022-08-01T10:21:58.001Z,24.45
2022-08-01T10:27:12.368Z,24.53
2022-08-01T10:32:15.813Z,24.49
2022-08-01T10:37:27.542Z,24.12
2022-08-01T10:42:32.702Z,24.12
2022-08-01T10:47:50.705Z,24.33
2022-08-01T10:53:31.892Z,23.25
2022-08-01T10:58:49.461Z,23.97
2022-08-01T11:04:01.871Z,24.18
2022-08-01T11:09:07.822Z,24.32
2022-08-01T11:14:13.469Z,24.37
2022-08-01T11:19:17.468Z,24.38
2022-08-01T11:24:58.941Z,23.83
2022-08-01T11:30:27.041Z,24.56
2022-08-01T11:35:30.810Z,24.75
2022-08-01T11:40:33.676Z,24.55
2022-08-01T11:45:51.217Z,24.75
2022-08-01T11:50:56.173Z,24.60
2022-08-01T11:56:00.590Z,24.47
2022-08-01T12:01:04.835Z,24.74
2022-08-01T12:06:09.972Z,24.37
2022-08-01T12:11:12.991Z,24.09
2022-08-01T12:16:18.111Z,23.86
2022-08-01T12:21:23.708Z,23.67
2022-08-01T12:26:41.076Z,23.35
2022-08-01T12:31:45.200Z,22.95
2022-08-01T12:37:17.651Z,23.93
2022-08-01T12:42:20.822Z,24.24
2022-08-01T12:47:25.833Z,24.34
2022-08-01T12:52:28.732Z,24.68
2022-08-01T12:57:43.324Z,24.32
2022-08-01T13:02:49.950Z,24.35
2022-08-01T13:07:53.333Z,24.37
2022-08-01T13:12:57.750Z,24.69
2022-08-01T13:18:03.446Z,24.78
2022-08-01T13:23:14.995Z,24.99
2022-08-01T13:28:19.105Z,24.44
2022-08-01T13:33:23.537Z,24.79
2022-08-01T13:38:45.946Z,25.13
2022-08-01T13:43:58.732Z,25.47
2022-08-01T13:49:15.946Z,25.49
2022-08-01T13:54:19.606Z,25.65
2022-08-01T13:59:24.620Z,25.63
2022-08-01T14:04:28.862Z,25.55
2022-08-01T14:09:32.592Z,25.75
2022-08-01T14:14:35.581Z,24.77
2022-08-01T14:19:43.359Z,25.19
2022-08-01T14:24:50.063Z,24.02
2022-08-01T14:30:03.315Z,23.70
2022-08-01T14:35:09.320Z,24.40
2022-08-01T14:40:12.519Z,24.16
2022-08-01T14:45:15.801Z,24.82
2022-08-01T14:50:20.015Z,25.47
2022-08-01T14:55:26.000Z,25.40
2022-08-01T15:00:28.994Z,24.39
2022-08-01T15:05:33.863Z,23.86
2022-08-01T15:10:36.766Z,24.77
2022-08-01T15:15:42.589Z,25.64
2022-08-01T15:20:48.448Z,25.33
2022-08-01T15:25:51.360Z,24.60
2022-08-01T15:30:54.196Z,24.82
2022-08-01T15:35:58.301Z,25.60
2022-08-01T15:41:01.661Z,25.27
2022-08-01T15:46:05.928Z,26.09
2022-08-01T15:51:10.184Z,26.37
2022-08-01T15:56:12.971Z,26.66
2022-08-01T16:01:17.882Z,26.66
2022-08-01T16:06:22.210Z,26.05
2022-08-01T16:11:27.821Z,25.67
2022-08-01T16:16:35.010Z,25.36
2022-08-01T16:21:39.157Z,24.90
2022-08-01T16:26:43.144Z,25.15
2022-08-01T16:31:55.733Z,24.33
2022-08-01T16:37:10.288Z,24.59
2022-08-01T16:42:13.085Z,24.24
2022-08-01T16:47:15.879Z,23.75
2022-08-01T16:52:20.053Z,24.18
2022-08-01T16:57:22.848Z,23.66
2022-08-01T17:02:25.730Z,24.46
2022-08-01T17:07:30.052Z,24.74
2022-08-01T17:12:35.398Z,24.18
2022-08-01T17:17:41.109Z,23.70
2022-08-01T17:22:49.947Z,24.28
2022-08-01T17:27:53.827Z,24.29
2022-08-01T17:32:56.740Z,24.58
2022-08-01T17:38:01.044Z,24.23
2022-08-01T17:43:03.865Z,23.53
2022-08-01T17:48:16.071Z,23.64
2022-08-01T17:53:24.073Z,23.19
2022-08-01T17:58:49.549Z,23.05
2022-08-01T18:03:50.146Z,22.80
2022-08-01T18:08:59.837Z,22.86
2022-08-01T18:14:07.389Z,22.60
2022-08-01T18:19:10.202Z,22.52
2022-08-01T18:29:23.284Z,22.15
2022-08-01T18:34:44.599Z,21.73
2022-08-01T18:39:50.284Z,21.53
2022-08-01T18:44:55.250Z,21.62
2022-08-01T18:49:58.142Z,21.62
2022-08-01T18:55:02.381Z,21.68
2022-08-01T19:00:07.380Z,21.79
2022-08-01T19:05:10.817Z,22.06
2022-08-01T19:10:17.153Z,22.09
2022-08-01T19:15:20.332Z,22.23
2022-08-01T19:20:25.578Z,22.15
2022-08-01T19:25:29.749Z,21.91
2022-08-01T19:30:33.871Z,21.99
2022-08-01T19:35:37.391Z,21.99
2022-08-01T19:40:41.829Z,21.94
2022-08-01T19:45:48.561Z,21.98
2022-08-01T19:50:52.525Z,21.55
2022-08-01T19:55:57.140Z,21.37
2022-08-01T20:00:59.959Z,21.43
2022-08-01T20:06:05.940Z,21.43
2022-08-01T20:11:18.853Z,21.35
2022-08-01T20:16:25.560Z,21.29
2022-08-01T20:21:29.074Z,21.31
2022-08-01T20:26:33.918Z,21.22
2022-08-01T20:31:43.817Z,20.98
2022-08-01T20:36:56.628Z,20.83
2022-08-01T20:42:02.642Z,20.76
2022-08-01T20:47:06.072Z,20.69
2022-08-01T20:52:12.107Z,20.44
2022-08-01T20:57:25.274Z,20.57
2022-08-01T21:02:34.223Z,20.60
2022-08-01T21:07:40.386Z,20.59
2022-08-01T21:12:49.666Z,20.56
2022-08-01T21:18:00.299Z,20.41
2022-08-01T21:23:16.062Z,20.03
2022-08-01T21:28:22.055Z,20.08
2022-08-01T21:33:25.588Z,20.07
2022-08-01T21:38:31.996Z,20.15
2022-08-01T21:43:38.688Z,20.09
2022-08-01T21:48:42.491Z,20.05
2022-08-01T21:53:50.226Z,20.05
2022-08-01T21:58:59.404Z,20.12
2022-08-01T22:04:04.594Z,20.07
2022-08-01T22:09:07.955Z,20.01
2022-08-01T22:14:14.973Z,19.90
2022-08-01T22:19:43.757Z,19.86
2022-08-01T22:24:42.316Z,19.86
2022-08-01T22:29:47.315Z,19.80
2022-08-01T22:34:50.323Z,19.81
2022-08-01T22:39:53.357Z,19.65
2022-08-01T22:45:03.836Z,19.42
2022-08-01T22:50:08.455Z,19.64
2022-08-01T22:55:12.335Z,19.41
2022-08-01T23:00:17.081Z,19.33
2022-08-01T23:05:22.706Z,19.49
2022-08-01T23:10:26.866Z,19.42
2022-08-01T23:15:31.608Z,19.32
2022-08-01T23:20:35.368Z,19.54
2022-08-01T23:25:38.628Z,19.59
2022-08-01T23:30:42.962Z,19.43
2022-08-01T23:35:46.064Z,19.16
2022-08-01T23:40:50.085Z,19.29
2022-08-01T23:46:02.542Z,19.02
2022-08-01T23:51:09.457Z,18.75
2022-08-01T23:56:16.878Z,18.72
